Lamar, Oklahoma
Current Conditions -  °F | °C
As of 1:53 AM on Friday 31 Oct 2014 (Local Time) from KMLC Reporting Station
Scattered Clouds Scattered Clouds  
Wind Chill: 58°   Ceiling: Unl
Heat Index: 58°   Visibility: 10mi
Dew Point: 40°   Wind: 12mph
Humidity: 51%   Direction: 350°N
Pressure: 30.18"   Gusts: NA
Location:  35.1°N, 96.13°W
Report Text: KMLC 310653Z AUTO 35010KT 10SM FEW070 SCT100 SCT120 14/04 A3018 RMK AO2 SLP213 T01440044
Loading
Personal Weather Stations






























Interactive Weather Map
Tropical Storm Tracking
New forecast layout! Learn more

10-Day Weather Forecast

Advertisements
Track Severe Weather on mobile